createdAt,value
2022-10-02T00:00:07.794Z,1.16
2022-10-02T00:01:07.830Z,1.02
2022-10-02T00:02:07.789Z,1.25
2022-10-02T00:03:07.771Z,1.40
2022-10-02T00:05:07.787Z,1.02
2022-10-02T00:06:07.845Z,1.26
2022-10-02T00:07:07.819Z,1.43
2022-10-02T00:08:07.803Z,1.07
2022-10-02T00:10:07.804Z,1.07
2022-10-02T00:11:07.811Z,1.11
2022-10-02T00:12:07.788Z,0.82
2022-10-02T00:13:07.817Z,1.30
2022-10-02T00:14:07.809Z,1.20
2022-10-02T00:15:07.817Z,0.98
2022-10-02T00:16:07.842Z,1.13
2022-10-02T00:17:07.822Z,1.44
2022-10-02T00:18:07.829Z,1.07
2022-10-02T00:19:07.833Z,1.35
2022-10-02T00:20:07.836Z,1.09
2022-10-02T00:21:07.847Z,0.94
2022-10-02T00:22:07.837Z,1.27
2022-10-02T00:23:07.835Z,1.56
2022-10-02T00:24:07.836Z,1.16
2022-10-02T00:25:07.840Z,1.03
2022-10-02T00:26:07.856Z,1.12
2022-10-02T00:27:07.847Z,0.93
2022-10-02T00:28:07.871Z,1.28
2022-10-02T00:29:07.874Z,1.14
2022-10-02T00:30:07.877Z,1.26
2022-10-02T00:31:07.846Z,0.90
2022-10-02T00:32:07.921Z,1.30
2022-10-02T00:33:07.882Z,1.01
2022-10-02T00:35:07.864Z,1.27
2022-10-02T00:36:07.883Z,1.03
2022-10-02T00:37:07.885Z,0.97
2022-10-02T00:38:07.889Z,1.05
2022-10-02T00:39:07.870Z,0.87
2022-10-02T00:42:07.901Z,1.00
2022-10-02T00:45:07.898Z,1.04
2022-10-02T00:46:08.015Z,1.40
2022-10-02T00:48:07.916Z,1.07
2022-10-02T00:50:07.897Z,0.85
2022-10-02T00:51:07.915Z,0.94
2022-10-02T00:53:07.903Z,0.85
2022-10-02T00:57:08.004Z,0.92
2022-10-02T00:58:07.933Z,0.94
2022-10-02T00:59:07.935Z,0.94
2022-10-02T01:00:07.932Z,0.75
2022-10-02T01:01:07.964Z,0.69
2022-10-02T01:03:07.961Z,0.70
2022-10-02T01:05:07.957Z,0.68
2022-10-02T01:06:07.935Z,0.91
2022-10-02T01:07:07.933Z,0.83
2022-10-02T01:08:07.943Z,0.70
2022-10-02T01:10:07.939Z,0.64
2022-10-02T01:11:07.955Z,0.80
2022-10-02T01:12:07.966Z,0.65
2022-10-02T01:13:07.954Z,0.65
2022-10-02T01:14:07.964Z,0.73
2022-10-02T01:15:07.974Z,0.89
2022-10-02T01:16:08.062Z,0.83
2022-10-02T01:17:07.967Z,0.78
2022-10-02T01:18:07.968Z,0.86
2022-10-02T01:19:07.955Z,0.66
2022-10-02T01:20:07.978Z,0.64
2022-10-02T01:21:07.975Z,0.80
2022-10-02T01:22:07.984Z,0.54
2022-10-02T01:25:07.981Z,0.74
2022-10-02T01:28:08.044Z,0.73
2022-10-02T01:30:08.026Z,0.66
2022-10-02T01:32:08.018Z,0.53
2022-10-02T01:33:08.013Z,0.62
2022-10-02T01:34:08.015Z,0.74
2022-10-02T01:37:08.034Z,0.59
2022-10-02T01:38:08.021Z,0.90
2022-10-02T01:39:08.038Z,0.82
2022-10-02T01:40:08.023Z,0.76
2022-10-02T01:41:08.036Z,0.62
2022-10-02T01:44:08.047Z,0.85
2022-10-02T01:45:08.042Z,0.66
2022-10-02T01:46:08.079Z,0.57
2022-10-02T01:47:08.052Z,0.51
2022-10-02T01:48:08.059Z,0.97
2022-10-02T01:49:08.087Z,0.67
2022-10-02T01:50:08.052Z,0.77
2022-10-02T01:51:08.056Z,0.66
2022-10-02T01:52:08.058Z,0.52
2022-10-02T01:53:08.056Z,0.67
2022-10-02T01:54:08.051Z,0.86
2022-10-02T01:55:08.063Z,0.42
2022-10-02T01:56:08.097Z,0.62
2022-10-02T01:57:08.070Z,0.81
2022-10-02T01:58:08.105Z,0.55
2022-10-02T02:00:08.073Z,0.58
2022-10-02T02:01:08.170Z,0.58
2022-10-02T02:02:08.208Z,0.76
2022-10-02T02:03:08.085Z,0.67
2022-10-02T02:04:08.088Z,0.82
2022-10-02T02:05:08.111Z,0.46
2022-10-02T02:06:08.105Z,0.79
2022-10-02T02:07:08.118Z,0.69
2022-10-02T02:08:08.109Z,0.77
2022-10-02T02:09:08.093Z,0.53
2022-10-02T02:11:08.123Z,0.50
2022-10-02T02:16:08.173Z,0.72
2022-10-02T02:17:08.111Z,0.57
2022-10-02T02:18:08.102Z,0.73
2022-10-02T02:19:08.133Z,0.69
2022-10-02T02:21:08.162Z,0.62
2022-10-02T02:22:08.140Z,0.43
2022-10-02T02:23:08.127Z,0.67
2022-10-02T02:24:08.148Z,0.42
2022-10-02T02:25:08.145Z,0.61
2022-10-02T02:26:08.147Z,0.64
2022-10-02T02:28:08.217Z,0.46
2022-10-02T02:29:08.160Z,0.76
2022-10-02T02:30:08.169Z,0.63
2022-10-02T02:34:08.165Z,0.79
2022-10-02T02:35:08.177Z,0.93
2022-10-02T02:37:08.161Z,0.74
2022-10-02T02:38:08.168Z,0.60
2022-10-02T02:40:08.194Z,0.49
2022-10-02T02:43:08.200Z,0.58
2022-10-02T02:45:08.201Z,0.40
2022-10-02T02:46:08.269Z,0.62
2022-10-02T02:47:08.207Z,0.53
2022-10-02T02:49:08.223Z,0.71
2022-10-02T02:52:08.221Z,0.54
2022-10-02T02:57:08.246Z,0.64
2022-10-02T02:58:08.222Z,0.74
2022-10-02T02:59:08.231Z,0.61
2022-10-02T03:00:08.240Z,0.58
2022-10-02T03:01:08.290Z,0.38
2022-10-02T03:02:08.338Z,0.45
2022-10-02T03:03:08.221Z,0.40
2022-10-02T03:05:08.254Z,0.48
2022-10-02T03:06:08.232Z,0.53
2022-10-02T03:07:08.255Z,0.69
2022-10-02T03:08:08.261Z,0.74
2022-10-02T03:09:08.243Z,0.74
2022-10-02T03:10:08.254Z,0.69
2022-10-02T03:11:08.273Z,0.56
2022-10-02T03:12:08.263Z,0.44
2022-10-02T03:13:08.258Z,0.66
2022-10-02T03:14:08.251Z,0.65
2022-10-02T03:15:08.288Z,0.50
2022-10-02T03:16:08.376Z,0.63
2022-10-02T03:17:08.290Z,0.51
2022-10-02T03:18:08.294Z,0.40
2022-10-02T03:19:08.278Z,0.84
2022-10-02T03:20:08.279Z,0.76
2022-10-02T03:21:08.295Z,0.66
2022-10-02T03:22:08.307Z,0.71
2022-10-02T03:23:09.924Z,0.95
2022-10-02T03:24:08.284Z,0.84
2022-10-02T03:25:08.308Z,0.68
2022-10-02T03:26:08.315Z,0.58
2022-10-02T03:28:08.388Z,0.98
2022-10-02T03:29:08.388Z,0.97
2022-10-02T03:30:08.325Z,0.68
2022-10-02T03:31:08.345Z,0.75
2022-10-02T03:32:08.309Z,0.66
2022-10-02T03:33:08.304Z,0.51
2022-10-02T03:35:08.297Z,0.52
2022-10-02T03:36:08.296Z,0.69
2022-10-02T03:37:08.321Z,0.65
2022-10-02T03:39:24.189Z,0.58
2022-10-02T03:40:08.317Z,0.67
2022-10-02T03:41:08.310Z,0.92
2022-10-02T03:44:08.354Z,0.67
2022-10-02T03:45:08.343Z,0.75
2022-10-02T03:46:08.348Z,0.76
2022-10-02T03:49:08.367Z,0.66
2022-10-02T03:50:08.353Z,0.75
2022-10-02T03:51:08.349Z,0.50
2022-10-02T03:52:08.354Z,0.73
2022-10-02T03:53:08.364Z,0.66
2022-10-02T03:54:08.393Z,0.66
2022-10-02T03:55:08.373Z,0.86
2022-10-02T03:57:08.378Z,0.95
2022-10-02T03:58:08.390Z,0.52
2022-10-02T04:01:08.398Z,0.69
2022-10-02T04:02:08.414Z,0.85
2022-10-02T04:03:08.496Z,0.76
2022-10-02T04:04:08.398Z,0.88
2022-10-02T04:05:08.401Z,0.96
2022-10-02T04:06:08.395Z,0.77
2022-10-02T04:08:08.385Z,0.76
2022-10-02T04:09:08.416Z,0.96
2022-10-02T04:10:08.406Z,0.88
2022-10-02T04:11:08.422Z,0.91
2022-10-02T04:12:08.418Z,0.66
2022-10-02T04:14:08.412Z,0.89
2022-10-02T04:15:08.407Z,0.76
2022-10-02T04:17:08.415Z,0.82
2022-10-02T04:18:08.481Z,0.84
2022-10-02T04:20:08.417Z,0.92
2022-10-02T04:22:08.426Z,0.50
2022-10-02T04:24:08.448Z,0.74
2022-10-02T04:25:08.456Z,0.86
2022-10-02T04:26:08.453Z,0.68
2022-10-02T04:27:08.471Z,0.71
2022-10-02T04:30:08.480Z,0.69
2022-10-02T04:31:08.570Z,0.57
2022-10-02T04:32:08.460Z,0.80
2022-10-02T04:33:08.453Z,0.62
2022-10-02T04:34:08.469Z,0.75
2022-10-02T04:35:08.479Z,0.56
2022-10-02T04:38:08.484Z,0.82
2022-10-02T04:41:08.497Z,0.67
2022-10-02T04:42:08.500Z,0.67
2022-10-02T04:43:08.510Z,0.85
2022-10-02T04:46:08.537Z,0.68
2022-10-02T04:55:08.516Z,0.77
2022-10-02T04:57:08.530Z,0.79
2022-10-02T04:58:08.522Z,0.79
2022-10-02T04:59:08.538Z,0.72
2022-10-02T05:00:08.519Z,0.77
2022-10-02T05:02:08.613Z,0.78
2022-10-02T05:03:08.574Z,0.86
2022-10-02T05:04:08.578Z,0.93
2022-10-02T05:07:08.571Z,1.09
2022-10-02T05:09:08.568Z,0.75
2022-10-02T05:11:08.567Z,0.86
2022-10-02T05:13:08.558Z,0.70
2022-10-02T05:15:08.575Z,0.68
2022-10-02T05:16:08.604Z,0.94
2022-10-02T05:17:08.556Z,0.70
2022-10-02T05:18:08.583Z,0.59
2022-10-02T05:19:08.598Z,0.82
2022-10-02T05:20:08.588Z,0.83
2022-10-02T05:21:08.593Z,0.89
2022-10-02T05:22:08.597Z,0.80
2022-10-02T05:24:08.605Z,0.89
2022-10-02T05:25:08.602Z,0.93
2022-10-02T05:28:08.713Z,1.84
2022-10-02T05:29:08.609Z,2.13
2022-10-02T05:30:08.596Z,3.35
2022-10-02T05:33:08.638Z,2.16
2022-10-02T05:34:08.621Z,2.80
2022-10-02T05:35:08.621Z,2.09
2022-10-02T05:38:08.629Z,3.12
2022-10-02T05:39:08.651Z,2.42
2022-10-02T05:40:08.624Z,2.45
2022-10-02T05:41:08.658Z,2.40
2022-10-02T05:42:08.662Z,1.69
2022-10-02T05:43:08.628Z,1.70
2022-10-02T05:44:08.632Z,2.40
2022-10-02T05:46:08.640Z,1.70
2022-10-02T05:48:08.655Z,5.01
2022-10-02T05:50:08.667Z,3.68
2022-10-02T05:51:08.686Z,3.27
2022-10-02T05:53:08.711Z,1.60
2022-10-02T05:54:08.683Z,2.92
2022-10-02T05:56:08.683Z,1.86
2022-10-02T05:58:08.666Z,1.37
2022-10-02T05:59:08.669Z,1.18
2022-10-02T06:03:08.703Z,1.06
2022-10-02T06:06:08.701Z,1.47
2022-10-02T06:07:08.676Z,1.35
2022-10-02T06:09:08.689Z,1.03
2022-10-02T06:10:08.696Z,1.02
2022-10-02T06:11:08.724Z,0.96
2022-10-02T06:12:08.741Z,1.12
2022-10-02T06:13:08.716Z,0.97
2022-10-02T06:16:08.768Z,0.94
2022-10-02T06:17:08.726Z,1.13
2022-10-02T06:18:08.723Z,0.78
2022-10-02T06:20:08.739Z,0.88
2022-10-02T06:21:08.722Z,0.97
2022-10-02T06:22:08.732Z,1.03
2022-10-02T06:23:08.753Z,1.58
2022-10-02T06:26:08.754Z,3.15
2022-10-02T06:27:08.760Z,3.18
2022-10-02T06:28:08.852Z,2.81
2022-10-02T06:34:08.761Z,1.22
2022-10-02T06:37:08.780Z,0.79
2022-10-02T06:38:08.776Z,0.81
2022-10-02T06:39:08.781Z,1.17
2022-10-02T06:40:08.812Z,1.38
2022-10-02T06:41:08.815Z,1.13
2022-10-02T06:42:08.798Z,1.01
2022-10-02T06:44:08.795Z,0.86
2022-10-02T06:45:08.795Z,0.79
2022-10-02T06:46:08.846Z,1.03
2022-10-02T06:47:08.810Z,1.03
2022-10-02T06:48:08.797Z,0.88
2022-10-02T06:49:08.791Z,0.79
2022-10-02T06:50:08.809Z,0.75
2022-10-02T06:51:08.838Z,0.72
2022-10-02T06:52:08.840Z,0.89
2022-10-02T06:53:08.826Z,0.71
2022-10-02T06:54:08.854Z,0.70
2022-10-02T06:55:08.874Z,0.53
2022-10-02T06:56:08.831Z,0.96
2022-10-02T06:57:08.820Z,0.68
2022-10-02T06:58:08.854Z,0.64
2022-10-02T07:01:08.868Z,0.58
2022-10-02T07:02:08.870Z,0.77
2022-10-02T07:03:08.844Z,0.75
2022-10-02T07:04:08.829Z,0.74
2022-10-02T07:05:08.834Z,0.70
2022-10-02T07:07:08.840Z,0.41
2022-10-02T07:08:08.876Z,0.75
2022-10-02T07:09:08.846Z,0.56
2022-10-02T07:10:08.857Z,0.32
2022-10-02T07:11:08.901Z,0.57
2022-10-02T07:12:08.958Z,0.54
2022-10-02T07:13:08.857Z,0.77
2022-10-02T07:14:08.862Z,0.56
2022-10-02T07:15:08.898Z,0.51
2022-10-02T07:16:08.944Z,0.55
2022-10-02T07:17:08.878Z,0.59
2022-10-02T07:18:08.902Z,0.57
2022-10-02T07:19:08.872Z,0.57
2022-10-02T07:20:08.910Z,0.69
2022-10-02T07:21:08.918Z,0.76
2022-10-02T07:22:32.349Z,0.58
2022-10-02T07:23:08.922Z,0.72
2022-10-02T07:24:08.900Z,0.74
2022-10-02T07:25:08.930Z,1.28
2022-10-02T07:26:08.965Z,1.71
2022-10-02T07:27:08.889Z,1.75
2022-10-02T07:28:09.040Z,1.22
2022-10-02T07:29:08.928Z,2.67
2022-10-02T07:30:08.959Z,0.54
2022-10-02T07:31:08.973Z,0.75
2022-10-02T07:32:08.920Z,0.50
2022-10-02T07:33:10.196Z,0.32
2022-10-02T07:34:08.908Z,0.49
2022-10-02T07:35:08.927Z,0.44
2022-10-02T07:36:08.945Z,0.80
2022-10-02T07:37:08.921Z,0.48
2022-10-02T07:38:08.932Z,2.11
2022-10-02T07:39:08.954Z,0.58
2022-10-02T07:40:08.947Z,0.39
2022-10-02T07:41:08.950Z,0.58
2022-10-02T07:42:08.967Z,0.45
2022-10-02T07:43:08.958Z,0.56
2022-10-02T07:44:08.968Z,0.57
2022-10-02T07:45:08.978Z,0.58
2022-10-02T07:46:09.739Z,0.41
2022-10-02T07:47:09.088Z,0.41
2022-10-02T07:48:08.982Z,0.56
2022-10-02T07:49:08.986Z,0.69
2022-10-02T07:50:08.942Z,0.37
2022-10-02T07:51:09.050Z,0.45
2022-10-02T07:52:08.956Z,0.42
2022-10-02T07:53:08.971Z,0.50
2022-10-02T07:54:08.988Z,0.54
2022-10-02T07:55:08.977Z,0.36
2022-10-02T07:56:08.958Z,0.43
2022-10-02T07:57:10.009Z,0.25
2022-10-02T07:58:08.998Z,0.41
2022-10-02T07:59:09.030Z,0.37
2022-10-02T08:00:08.975Z,0.35
2022-10-02T08:01:08.976Z,0.36
2022-10-02T08:02:09.032Z,0.41
2022-10-02T08:03:09.068Z,0.30
2022-10-02T08:04:09.015Z,0.48
2022-10-02T08:05:08.999Z,0.30
2022-10-02T08:06:08.989Z,0.35
2022-10-02T08:07:08.986Z,0.37
2022-10-02T08:08:09.058Z,0.36
2022-10-02T08:09:09.046Z,0.31
2022-10-02T08:13:09.035Z,0.39
2022-10-02T08:14:09.023Z,0.43
2022-10-02T08:15:09.061Z,0.62
2022-10-02T08:16:09.091Z,0.68
2022-10-02T08:17:09.019Z,0.84
2022-10-02T08:18:29.951Z,1.51
2022-10-02T08:19:09.060Z,2.11
2022-10-02T08:20:09.048Z,1.46
2022-10-02T08:21:09.066Z,1.11
2022-10-02T08:22:09.074Z,0.64
2022-10-02T08:23:09.042Z,0.49
2022-10-02T08:24:09.071Z,0.34
2022-10-02T08:26:09.076Z,0.50
2022-10-02T08:27:09.082Z,0.31
2022-10-02T08:28:09.146Z,0.59
2022-10-02T08:29:09.071Z,0.67
2022-10-02T08:30:09.090Z,0.95
2022-10-02T08:31:09.143Z,1.30
2022-10-02T08:32:09.071Z,1.38
2022-10-02T08:33:09.100Z,1.09
2022-10-02T08:34:09.081Z,0.84
2022-10-02T08:35:09.089Z,0.53
2022-10-02T08:36:09.103Z,0.58
2022-10-02T08:37:09.076Z,0.50
2022-10-02T08:38:09.086Z,0.30
2022-10-02T08:39:09.114Z,0.56
2022-10-02T08:40:09.079Z,0.56
2022-10-02T08:41:09.097Z,0.46
2022-10-02T08:42:09.107Z,0.44
2022-10-02T08:43:09.129Z,0.57
2022-10-02T08:44:09.105Z,0.35
2022-10-02T08:45:09.121Z,1.73
2022-10-02T08:46:09.172Z,3.12
2022-10-02T08:47:09.109Z,2.82
2022-10-02T08:48:09.113Z,2.31
2022-10-02T08:49:09.122Z,1.55
2022-10-02T08:50:09.129Z,1.00
2022-10-02T08:51:09.125Z,0.80
2022-10-02T08:52:09.150Z,1.05
2022-10-02T08:53:09.135Z,0.68
2022-10-02T08:54:09.153Z,0.67
2022-10-02T08:55:09.137Z,0.53
2022-10-02T08:56:09.179Z,0.51
2022-10-02T08:57:09.166Z,0.36
2022-10-02T08:58:10.327Z,0.39
2022-10-02T08:59:09.156Z,0.99
2022-10-02T09:00:09.171Z,0.50
2022-10-02T09:01:10.572Z,0.50
2022-10-02T09:02:09.197Z,0.87
2022-10-02T09:03:09.172Z,0.72
2022-10-02T09:05:09.166Z,0.62
2022-10-02T09:06:09.175Z,0.38
2022-10-02T09:08:09.185Z,0.46
2022-10-02T09:09:09.173Z,0.57
2022-10-02T09:10:09.181Z,0.57
2022-10-02T09:11:09.189Z,0.37
2022-10-02T09:12:09.186Z,0.46
2022-10-02T09:13:09.192Z,0.39
2022-10-02T09:14:09.183Z,0.59
2022-10-02T09:15:09.195Z,0.43
2022-10-02T09:16:09.278Z,0.70
2022-10-02T09:17:09.206Z,0.38
2022-10-02T09:18:09.223Z,0.46
2022-10-02T09:19:09.217Z,0.42
2022-10-02T09:20:09.198Z,0.51
2022-10-02T09:21:11.595Z,0.59
2022-10-02T09:22:09.215Z,0.41
2022-10-02T09:23:09.244Z,0.49
2022-10-02T09:24:09.198Z,0.64
2022-10-02T09:25:09.237Z,0.62
2022-10-02T09:26:09.233Z,0.64
2022-10-02T09:27:09.222Z,0.33
2022-10-02T09:29:09.229Z,0.46
2022-10-02T09:30:09.225Z,0.53
2022-10-02T09:31:09.225Z,0.64
2022-10-02T09:32:09.233Z,0.56
2022-10-02T09:33:11.637Z,0.52
2022-10-02T09:35:09.242Z,0.47
2022-10-02T09:36:09.248Z,0.57
2022-10-02T09:38:09.261Z,0.80
2022-10-02T09:39:09.235Z,0.49
2022-10-02T09:40:09.244Z,0.55
2022-10-02T09:44:09.276Z,0.46
2022-10-02T09:45:09.297Z,0.53
2022-10-02T09:46:09.293Z,0.46
2022-10-02T09:47:09.259Z,0.61
2022-10-02T09:48:09.308Z,0.64
2022-10-02T09:49:09.265Z,0.29
2022-10-02T09:50:09.287Z,0.65
2022-10-02T09:51:09.305Z,0.52
2022-10-02T09:52:09.285Z,0.93
2022-10-02T09:53:09.293Z,1.25
2022-10-02T09:54:09.262Z,1.23
2022-10-02T09:55:09.295Z,1.79
2022-10-02T09:57:09.280Z,1.44
2022-10-02T09:58:09.294Z,1.07
2022-10-02T10:02:09.444Z,2.09
2022-10-02T10:03:09.291Z,2.56
2022-10-02T10:04:09.318Z,1.25
2022-10-02T10:05:09.313Z,1.11
2022-10-02T10:06:09.349Z,0.89
2022-10-02T10:07:09.323Z,0.87
2022-10-02T10:08:09.325Z,0.57
2022-10-02T10:10:09.331Z,1.30
2022-10-02T10:11:09.354Z,1.87
2022-10-02T10:12:10.005Z,2.44
2022-10-02T10:13:09.340Z,1.43
2022-10-02T10:14:09.346Z,0.80
2022-10-02T10:15:09.441Z,0.86
2022-10-02T10:16:10.521Z,0.87
2022-10-02T10:17:09.354Z,0.63
2022-10-02T10:18:09.363Z,0.63
2022-10-02T10:20:09.350Z,0.49
2022-10-02T10:21:09.372Z,1.83
2022-10-02T10:22:09.404Z,3.03
2022-10-02T10:24:09.363Z,2.46
2022-10-02T10:25:09.398Z,1.09
2022-10-02T10:26:09.382Z,0.50
2022-10-02T10:27:09.390Z,0.41
2022-10-02T10:28:09.434Z,0.76
2022-10-02T10:29:09.384Z,0.73
2022-10-02T10:30:09.401Z,0.66
2022-10-02T10:32:09.404Z,0.44
2022-10-02T10:33:09.404Z,0.81
2022-10-02T10:34:09.394Z,0.48
2022-10-02T10:35:09.381Z,0.55
2022-10-02T10:36:09.426Z,0.36
2022-10-02T10:38:09.394Z,1.14
2022-10-02T10:39:09.400Z,1.56
2022-10-02T10:40:09.385Z,1.79
2022-10-02T10:41:09.428Z,1.47
2022-10-02T11:14:44.362Z,0.41
2022-10-02T11:15:44.339Z,0.25
2022-10-02T11:16:44.401Z,0.30
2022-10-02T11:17:44.889Z,0.26
2022-10-02T11:18:44.338Z,0.24
2022-10-02T11:19:44.489Z,0.39
2022-10-02T11:20:44.359Z,0.54
2022-10-02T11:21:44.342Z,0.92
2022-10-02T11:22:44.364Z,1.28
2022-10-02T11:23:44.363Z,1.60
2022-10-02T11:24:44.990Z,1.30
2022-10-02T11:25:44.393Z,1.07
2022-10-02T11:26:44.377Z,0.65
2022-10-02T11:27:44.368Z,0.62
2022-10-02T11:28:44.364Z,0.53
2022-10-02T11:29:44.519Z,0.50
2022-10-02T11:30:44.366Z,0.33
2022-10-02T11:31:44.405Z,0.41
2022-10-02T11:32:45.766Z,0.31
2022-10-02T11:33:44.390Z,0.38
2022-10-02T11:34:44.389Z,0.48
2022-10-02T11:35:44.388Z,0.45
2022-10-02T11:36:44.388Z,0.30
2022-10-02T11:39:44.535Z,0.58
2022-10-02T11:40:44.396Z,0.48
2022-10-02T11:41:44.410Z,0.47
2022-10-02T11:42:44.405Z,0.45
2022-10-02T11:43:44.384Z,0.40
2022-10-02T11:44:44.414Z,0.55
2022-10-02T11:46:44.437Z,0.47
2022-10-02T11:47:44.413Z,0.52
2022-10-02T11:48:44.402Z,0.59
2022-10-02T11:49:44.433Z,0.41
2022-10-02T11:50:44.415Z,0.64
2022-10-02T11:51:44.425Z,0.48
2022-10-02T11:52:48.145Z,0.54
2022-10-02T11:53:44.435Z,0.85
2022-10-02T11:54:44.413Z,0.68
2022-10-02T11:55:44.439Z,0.57
2022-10-02T11:56:44.439Z,0.41
2022-10-02T11:59:44.450Z,0.42
2022-10-02T12:00:44.456Z,0.46
2022-10-02T12:01:45.260Z,0.71
2022-10-02T12:02:44.580Z,1.05
2022-10-02T12:03:44.437Z,0.78
2022-10-02T12:04:44.462Z,0.57
2022-10-02T12:05:44.498Z,0.52
2022-10-02T12:06:44.468Z,0.39
2022-10-02T12:07:44.452Z,0.51
2022-10-02T12:08:44.476Z,0.90
2022-10-02T12:09:44.468Z,2.20
2022-10-02T12:10:44.531Z,1.34
2022-10-02T12:11:44.468Z,2.63
2022-10-02T12:12:44.495Z,1.25
2022-10-02T12:13:44.493Z,2.03
2022-10-02T12:14:44.492Z,0.95
2022-10-02T12:15:44.490Z,0.89
2022-10-02T12:16:44.613Z,0.38
2022-10-02T12:17:44.484Z,0.36
2022-10-02T12:18:44.498Z,0.56
2022-10-02T12:19:44.502Z,0.84
2022-10-02T12:20:44.485Z,0.60
2022-10-02T12:21:44.514Z,0.43
2022-10-02T12:22:44.506Z,0.62
2022-10-02T12:23:44.496Z,0.49
2022-10-02T12:24:44.516Z,0.62
2022-10-02T12:25:44.505Z,0.26
2022-10-02T12:26:44.524Z,0.58
2022-10-02T12:27:44.531Z,0.75
2022-10-02T12:28:44.525Z,0.73
2022-10-02T12:29:44.527Z,0.59
2022-10-02T12:30:44.529Z,0.53
2022-10-02T12:31:44.572Z,0.52
2022-10-02T12:32:44.512Z,0.66
2022-10-02T12:33:44.540Z,0.48
2022-10-02T12:34:44.532Z,0.48
2022-10-02T12:35:44.532Z,0.60
2022-10-02T12:36:44.526Z,0.70
2022-10-02T12:38:45.549Z,0.52
2022-10-02T12:39:44.565Z,0.64
2022-10-02T12:40:44.547Z,0.60
2022-10-02T12:41:44.608Z,0.65
2022-10-02T12:42:44.608Z,0.60
2022-10-02T12:43:44.570Z,0.71
2022-10-02T12:44:44.572Z,0.66
2022-10-02T12:45:44.654Z,0.63
2022-10-02T12:46:44.571Z,0.60
2022-10-02T12:47:44.551Z,0.63
2022-10-02T12:48:44.592Z,0.74
2022-10-02T12:49:44.561Z,0.70
2022-10-02T12:50:44.581Z,0.77
2022-10-02T12:51:44.576Z,0.86
2022-10-02T12:52:44.581Z,1.15
2022-10-02T12:53:44.590Z,0.97
2022-10-02T12:55:44.596Z,0.66
2022-10-02T12:56:44.597Z,0.92
2022-10-02T12:57:44.586Z,0.57
2022-10-02T12:59:44.605Z,0.84
2022-10-02T13:00:44.613Z,0.55
2022-10-02T13:01:44.705Z,0.77
2022-10-02T13:03:00.248Z,1.29
2022-10-02T13:03:44.642Z,0.86
2022-10-02T13:04:44.589Z,0.70
2022-10-02T13:05:46.795Z,0.67
2022-10-02T13:06:44.618Z,0.78
2022-10-02T13:07:44.624Z,0.81
2022-10-02T13:08:44.623Z,0.80
2022-10-02T13:09:44.640Z,0.80
2022-10-02T13:10:44.618Z,0.66
2022-10-02T13:11:44.620Z,0.80
2022-10-02T13:12:44.632Z,1.88
2022-10-02T13:13:44.615Z,1.42
2022-10-02T13:14:44.635Z,1.69
2022-10-02T13:15:45.922Z,2.13
2022-10-02T13:16:44.742Z,2.50
2022-10-02T13:17:44.659Z,0.95
2022-10-02T13:18:44.643Z,0.93
2022-10-02T13:19:44.667Z,0.71
2022-10-02T13:20:44.662Z,0.59
2022-10-02T13:21:44.661Z,0.67
2022-10-02T13:22:44.639Z,0.65
2022-10-02T13:23:44.793Z,0.79
2022-10-02T13:24:44.660Z,0.90
2022-10-02T13:25:44.688Z,0.84
2022-10-02T13:26:44.670Z,0.54
2022-10-02T13:27:44.667Z,0.88
2022-10-02T13:28:44.672Z,0.62
2022-10-02T13:29:44.684Z,0.53
2022-10-02T13:30:44.688Z,0.72
2022-10-02T13:31:44.769Z,0.59
2022-10-02T13:32:44.696Z,0.67
2022-10-02T13:33:44.676Z,0.62
2022-10-02T13:34:44.700Z,0.66
2022-10-02T13:35:44.689Z,0.56
2022-10-02T13:36:44.730Z,0.60
2022-10-02T13:37:44.677Z,0.95
2022-10-02T13:38:44.688Z,0.70
2022-10-02T13:39:44.707Z,0.76
2022-10-02T13:40:44.705Z,0.77
2022-10-02T13:41:44.712Z,0.73
2022-10-02T13:42:44.723Z,0.70
2022-10-02T13:44:44.720Z,0.95
2022-10-02T13:45:44.741Z,0.82
2022-10-02T13:46:44.724Z,0.85
2022-10-02T13:47:44.716Z,0.87
2022-10-02T13:48:44.717Z,0.54
2022-10-02T13:49:44.712Z,0.73
2022-10-02T13:50:44.736Z,0.62
2022-10-02T13:51:44.718Z,0.77
2022-10-02T13:52:46.155Z,0.86
2022-10-02T13:53:44.731Z,0.61
2022-10-02T13:54:44.741Z,0.86
2022-10-02T13:55:44.767Z,0.89
2022-10-02T13:56:44.744Z,0.85
2022-10-02T13:57:44.741Z,1.12
2022-10-02T13:58:44.760Z,1.27
2022-10-02T13:59:44.758Z,1.18
2022-10-02T14:00:44.802Z,1.32
2022-10-02T14:01:44.851Z,1.31
2022-10-02T14:02:44.778Z,1.79
2022-10-02T14:03:44.836Z,1.84
2022-10-02T14:04:44.757Z,1.14
2022-10-02T14:05:44.799Z,0.73
2022-10-02T14:06:44.776Z,0.87
2022-10-02T14:07:44.764Z,0.94
2022-10-02T14:08:44.786Z,0.86
2022-10-02T14:09:44.786Z,0.80
2022-10-02T14:10:44.782Z,0.50
2022-10-02T14:11:44.803Z,0.51
2022-10-02T14:12:44.799Z,0.58
2022-10-02T14:13:44.792Z,0.62
2022-10-02T14:14:44.783Z,0.71
2022-10-02T14:15:44.793Z,0.59
2022-10-02T14:16:44.854Z,0.64
2022-10-02T14:17:44.826Z,0.70
2022-10-02T14:18:44.805Z,0.75
2022-10-02T14:19:44.788Z,0.80
2022-10-02T14:20:44.812Z,0.64
2022-10-02T14:22:44.808Z,0.80
2022-10-02T14:23:44.808Z,0.61
2022-10-02T14:24:44.808Z,0.64
2022-10-02T14:25:44.842Z,0.68
2022-10-02T14:26:44.824Z,0.75
2022-10-02T14:27:44.834Z,0.63
2022-10-02T14:28:45.033Z,0.86
2022-10-02T14:29:46.497Z,0.66
2022-10-02T14:30:44.839Z,0.97
2022-10-02T14:31:45.896Z,0.73
2022-10-02T14:32:44.846Z,0.52
2022-10-02T14:33:44.821Z,0.67
2022-10-02T14:35:44.868Z,0.87
2022-10-02T14:36:44.840Z,0.50
2022-10-02T14:37:44.894Z,0.81
2022-10-02T14:38:44.861Z,0.56
2022-10-02T14:39:44.861Z,0.76
2022-10-02T14:40:44.872Z,0.72
2022-10-02T14:41:48.579Z,0.65
2022-10-02T14:43:44.889Z,0.89
2022-10-02T14:44:44.873Z,0.98
2022-10-02T14:45:44.919Z,0.95
2022-10-02T14:46:44.880Z,0.84
2022-10-02T14:47:44.870Z,0.85
2022-10-02T14:48:44.881Z,0.72
2022-10-02T14:49:44.895Z,0.84
2022-10-02T14:50:44.886Z,1.53
2022-10-02T14:51:44.908Z,2.91
2022-10-02T14:52:44.899Z,1.46
2022-10-02T14:53:44.899Z,1.62
2022-10-02T14:54:44.900Z,1.39
2022-10-02T14:55:44.881Z,2.01
2022-10-02T14:56:44.895Z,1.56
2022-10-02T14:57:44.881Z,0.94
2022-10-02T14:58:44.890Z,0.70
2022-10-02T14:59:44.885Z,0.72
2022-10-02T15:00:44.945Z,0.92
2022-10-02T15:01:44.903Z,0.83
2022-10-02T15:02:44.917Z,0.70
2022-10-02T15:03:44.921Z,0.75
2022-10-02T15:04:44.959Z,0.52
2022-10-02T15:05:44.917Z,0.62
2022-10-02T15:06:46.802Z,0.66
2022-10-02T15:07:44.928Z,0.66
2022-10-02T15:08:44.938Z,0.78
2022-10-02T15:09:44.924Z,0.80
2022-10-02T15:10:44.927Z,0.92
2022-10-02T15:11:44.937Z,0.75
2022-10-02T15:12:44.939Z,0.84
2022-10-02T15:13:44.941Z,1.28
2022-10-02T15:14:44.938Z,1.50
2022-10-02T15:15:45.008Z,1.19
2022-10-02T15:16:44.945Z,1.24
2022-10-02T15:17:44.962Z,1.04
2022-10-02T15:18:44.951Z,0.70
2022-10-02T15:19:49.092Z,0.84
2022-10-02T15:21:44.941Z,0.70
2022-10-02T15:22:44.974Z,1.25
2022-10-02T15:23:44.954Z,1.77
2022-10-02T15:24:44.972Z,1.33
2022-10-02T15:25:44.954Z,1.14
2022-10-02T15:26:44.946Z,1.04
2022-10-02T15:27:44.956Z,1.15
2022-10-02T15:28:44.998Z,1.16
2022-10-02T15:29:44.969Z,1.07
2022-10-02T15:30:44.987Z,0.88
2022-10-02T15:31:44.995Z,0.91
2022-10-02T15:32:44.986Z,0.94
2022-10-02T15:34:44.993Z,1.04
2022-10-02T15:35:44.992Z,0.64
2022-10-02T15:36:44.990Z,1.10
2022-10-02T15:37:44.991Z,0.83
2022-10-02T15:38:44.981Z,0.72
2022-10-02T15:39:44.981Z,0.67
2022-10-02T15:41:45.005Z,0.77
2022-10-02T15:42:49.440Z,0.81
2022-10-02T15:43:47.121Z,0.63
2022-10-02T15:45:45.072Z,0.56
2022-10-02T15:46:45.044Z,0.75
2022-10-02T15:47:45.019Z,1.05
2022-10-02T15:48:47.910Z,0.79
2022-10-02T15:49:45.031Z,0.60
2022-10-02T15:50:45.052Z,0.57
2022-10-02T15:51:45.034Z,0.66
2022-10-02T15:52:45.050Z,0.86
2022-10-02T15:53:45.032Z,0.76
2022-10-02T15:55:45.043Z,0.69
2022-10-02T15:56:45.064Z,0.82
2022-10-02T15:57:45.052Z,0.91
2022-10-02T15:59:45.067Z,0.87
2022-10-02T16:00:45.086Z,0.74
2022-10-02T16:02:45.257Z,0.96
2022-10-02T16:03:45.050Z,0.99
2022-10-02T16:04:45.117Z,0.87
2022-10-02T16:05:45.096Z,0.95
2022-10-02T16:06:45.078Z,0.92
2022-10-02T16:07:45.065Z,1.09
2022-10-02T16:08:45.053Z,1.09
2022-10-02T16:09:45.087Z,2.62
2022-10-02T16:10:45.107Z,2.42
2022-10-02T16:11:45.064Z,1.78
2022-10-02T16:14:45.114Z,1.12
2022-10-02T16:15:45.100Z,1.10
2022-10-02T16:16:45.117Z,0.62
2022-10-02T16:17:45.089Z,1.06
2022-10-02T16:18:45.127Z,0.70
2022-10-02T16:19:45.107Z,0.69
2022-10-02T16:20:48.103Z,0.78
2022-10-02T16:21:45.127Z,0.84
2022-10-02T16:22:45.095Z,0.64
2022-10-02T16:23:45.113Z,0.92
2022-10-02T16:24:45.121Z,0.90
2022-10-02T16:25:45.134Z,0.83
2022-10-02T16:26:45.135Z,0.90
2022-10-02T16:28:45.139Z,0.84
2022-10-02T16:29:45.140Z,0.74
2022-10-02T16:30:45.140Z,0.72
2022-10-02T16:31:45.163Z,0.69
2022-10-02T16:33:45.142Z,0.91
2022-10-02T16:34:45.157Z,0.94
2022-10-02T16:35:45.207Z,0.72
2022-10-02T16:37:45.160Z,0.88
2022-10-02T16:38:45.167Z,0.64
2022-10-02T16:39:45.188Z,0.68
2022-10-02T16:40:45.164Z,0.93